Time,TemperatureF,DewpointF,PressureIn,WindDirection,WindDirectionDegrees,WindSpeedMPH,WindSpeedGustMPH,Humidity,HourlyPrecipIn,Conditions,Clouds,dailyrainin,SoftwareType,DateUTC
2013-10-08 00:00:00,55.0,45.0,-100.00,WSW,245,9.0,-999.0,69,0.00,,,-99.99,,2013-10-08 07:00:00,
2013-10-08 00:42:00,55.0,45.0,-100.00,WSW,245,9.0,-999.0,69,0.00,,,-99.99,,2013-10-08 07:42:00,
2013-10-08 00:52:00,55.0,45.0,-100.00,WSW,245,9.0,-999.0,69,0.00,,,-99.99,,2013-10-08 07:52:00,
2013-10-08 01:00:00,55.0,46.0,-100.00,WSW,245,8.0,-999.0,70,0.00,,,-99.99,,2013-10-08 08:00:00,
2013-10-08 01:42:00,55.0,46.0,-100.00,WSW,245,8.0,-999.0,70,0.00,,,-99.99,,2013-10-08 08:42:00,
2013-10-08 01:52:00,55.0,46.0,-100.00,WSW,245,8.0,-999.0,70,0.00,,,-99.99,,2013-10-08 08:52:00,
2013-10-08 02:00:00,54.0,46.0,-100.00,WSW,247,8.0,-999.0,71,0.00,,,-99.99,,2013-10-08 09:00:00,
2013-10-08 02:43:00,54.0,46.0,-100.00,WSW,247,8.0,-999.0,71,0.00,,,-99.99,,2013-10-08 09:43:00,
2013-10-08 02:53:00,54.0,46.0,-100.00,WSW,247,8.0,-999.0,71,0.00,,,-99.99,,2013-10-08 09:53:00,
2013-10-08 03:00:00,54.0,45.0,-100.00,WSW,238,6.0,-999.0,72,0.00,,,-99.99,,2013-10-08 10:00:00,
2013-10-08 03:42:00,54.0,45.0,-100.00,WSW,238,6.0,-999.0,72,0.00,,,-99.99,,2013-10-08 10:42:00,
2013-10-08 03:53:00,54.0,45.0,-100.00,WSW,238,6.0,-999.0,72,0.00,,,-99.99,,2013-10-08 10:53:00,
2013-10-08 04:00:00,50.0,44.0,-100.00,WNW,291,0.0,-999.0,80,0.00,,,-99.99,,2013-10-08 11:00:00,
2013-10-08 04:42:00,50.0,44.0,-100.00,WNW,291,0.0,-999.0,80,0.00,,,-99.99,,2013-10-08 11:42:00,
2013-10-08 04:52:00,50.0,44.0,-100.00,WNW,291,0.0,-999.0,80,0.00,,,-99.99,,2013-10-08 11:52:00,
2013-10-08 06:00:00,52.0,44.0,-100.00,SSW,211,1.0,-999.0,72,0.00,,,-99.99,,2013-10-08 13:00:00,
2013-10-08 06:42:00,52.0,44.0,-100.00,SSW,211,1.0,-999.0,72,0.00,,,-99.99,,2013-10-08 13:42:00,
2013-10-08 06:52:00,52.0,44.0,-100.00,SSW,211,1.0,-999.0,72,0.00,,,-99.99,,2013-10-08 13:52:00,
2013-10-08 07:00:00,52.0,44.0,-100.00,West,266,3.0,-999.0,72,0.00,,,-99.99,,2013-10-08 14:00:00,
2013-10-08 07:42:00,52.0,44.0,-100.00,West,266,3.0,-999.0,72,0.00,,,-99.99,,2013-10-08 14:42:00,
2013-10-08 07:52:00,52.0,44.0,-100.00,West,266,3.0,-999.0,72,0.00,,,-99.99,,2013-10-08 14:52:00,
2013-10-08 08:00:00,51.0,44.0,-100.00,WSW,256,4.0,-999.0,77,0.00,,,-99.99,,2013-10-08 15:00:00,
2013-10-08 08:53:00,51.0,44.0,-100.00,WSW,256,4.0,-999.0,77,0.00,,,-99.99,,2013-10-08 15:53:00,
2013-10-08 09:00:00,54.0,46.0,-100.00,North,7,0.0,-999.0,71,0.00,,,-99.99,,2013-10-08 16:00:00,
2013-10-08 09:53:00,54.0,46.0,-100.00,North,7,0.0,-999.0,71,0.00,,,-99.99,,2013-10-08 16:53:00,
2013-10-08 10:00:00,59.0,45.0,-100.00,North,353,7.0,-999.0,59,0.00,,,-99.99,,2013-10-08 17:00:00,
2013-10-08 10:42:00,59.0,45.0,-100.00,North,353,7.0,-999.0,59,0.00,,,-99.99,,2013-10-08 17:42:00,
2013-10-08 10:52:00,59.0,45.0,-100.00,North,353,7.0,-999.0,59,0.00,,,-99.99,,2013-10-08 17:52:00,
2013-10-08 11:00:00,61.0,45.0,-100.00,NNE,30,4.0,-999.0,54,0.00,,,-99.99,,2013-10-08 18:00:00,
2013-10-08 11:42:00,61.0,45.0,-100.00,NNE,30,4.0,-999.0,54,0.00,,,-99.99,,2013-10-08 18:42:00,
2013-10-08 11:53:00,61.0,45.0,-100.00,NNE,30,4.0,-999.0,54,0.00,,,-99.99,,2013-10-08 18:53:00,
2013-10-08 12:00:00,65.0,44.0,-100.00,ESE,111,1.0,-999.0,46,0.00,,,-99.99,,2013-10-08 19:00:00,
2013-10-08 12:42:00,65.0,44.0,-100.00,ESE,111,1.0,-999.0,46,0.00,,,-99.99,,2013-10-08 19:42:00,
2013-10-08 12:52:00,65.0,44.0,-100.00,ESE,111,1.0,-999.0,46,0.00,,,-99.99,,2013-10-08 19:52:00,
2013-10-08 13:00:00,72.0,42.0,-100.00,WSW,248,1.0,-999.0,34,0.00,,,-99.99,,2013-10-08 20:00:00,
2013-10-08 13:42:00,72.0,42.0,-100.00,WSW,248,1.0,-999.0,34,0.00,,,-99.99,,2013-10-08 20:42:00,
2013-10-08 13:52:00,72.0,42.0,-100.00,WSW,248,1.0,-999.0,34,0.00,,,-99.99,,2013-10-08 20:52:00,
2013-10-08 14:00:00,75.0,42.0,-100.00,SW,234,4.0,-999.0,30,0.00,,,-99.99,,2013-10-08 21:00:00,
2013-10-08 14:44:00,75.0,42.0,-100.00,SW,234,4.0,-999.0,30,0.00,,,-99.99,,2013-10-08 21:44:00,
2013-10-08 14:54:00,75.0,42.0,-100.00,SW,234,4.0,-999.0,30,0.00,,,-99.99,,2013-10-08 21:54:00,
2013-10-08 15:00:00,73.0,43.0,-100.00,SW,229,14.0,-999.0,34,0.00,,,-99.99,,2013-10-08 22:00:00,
2013-10-08 15:49:00,73.0,43.0,-100.00,SW,229,14.0,-999.0,34,0.00,,,-99.99,,2013-10-08 22:49:00,
2013-10-08 15:57:00,73.0,43.0,-100.00,SW,229,14.0,-999.0,34,0.00,,,-99.99,,2013-10-08 22:57:00,
2013-10-08 16:00:00,67.0,42.0,-100.00,WSW,244,14.0,-999.0,40,0.00,,,-99.99,,2013-10-08 23:00:00,
2013-10-08 16:42:00,67.0,42.0,-100.00,WSW,244,14.0,-999.0,40,0.00,,,-99.99,,2013-10-08 23:42:00,
2013-10-08 16:52:00,67.0,42.0,-100.00,WSW,244,14.0,-999.0,40,0.00,,,-99.99,,2013-10-08 23:52:00,
2013-10-08 17:00:00,66.0,43.0,-100.00,WSW,243,12.0,-999.0,42,0.00,,,-99.99,,2013-10-09 00:00:00,
2013-10-08 17:43:00,66.0,43.0,-100.00,WSW,243,12.0,-999.0,42,0.00,,,-99.99,,2013-10-09 00:43:00,
2013-10-08 17:52:00,66.0,43.0,-100.00,WSW,243,12.0,-999.0,42,0.00,,,-99.99,,2013-10-09 00:52:00,
2013-10-08 18:00:00,65.0,44.0,-100.00,SSW,209,14.0,-999.0,45,0.00,,,-99.99,,2013-10-09 01:00:00,
2013-10-08 18:43:00,65.0,44.0,-100.00,SSW,209,14.0,-999.0,45,0.00,,,-99.99,,2013-10-09 01:43:00,
2013-10-08 18:52:00,65.0,44.0,-100.00,SSW,209,14.0,-999.0,45,0.00,,,-99.99,,2013-10-09 01:52:00,
2013-10-08 19:00:00,60.0,45.0,-100.00,SSW,192,3.0,-999.0,57,0.00,,,-99.99,,2013-10-09 02:00:00,
2013-10-08 19:42:00,60.0,45.0,-100.00,SSW,192,3.0,-999.0,57,0.00,,,-99.99,,2013-10-09 02:42:00,
2013-10-08 19:52:00,60.0,45.0,-100.00,SSW,192,3.0,-999.0,57,0.00,,,-99.99,,2013-10-09 02:52:00,
2013-10-08 20:00:00,57.0,45.0,-100.00,SW,234,7.0,-999.0,63,0.00,,,-99.99,,2013-10-09 03:00:00,
2013-10-08 20:45:00,57.0,45.0,-100.00,SW,234,7.0,-999.0,63,0.00,,,-99.99,,2013-10-09 03:45:00,
2013-10-08 20:54:00,57.0,45.0,-100.00,SW,234,7.0,-999.0,63,0.00,,,-99.99,,2013-10-09 03:54:00,
2013-10-08 21:00:00,56.0,44.0,-100.00,West,264,5.0,-999.0,64,0.00,,,-99.99,,2013-10-09 04:00:00,
2013-10-08 21:44:00,56.0,44.0,-100.00,West,264,5.0,-999.0,64,0.00,,,-99.99,,2013-10-09 04:44:00,
2013-10-08 21:54:00,56.0,44.0,-100.00,West,264,5.0,-999.0,64,0.00,,,-99.99,,2013-10-09 04:54:00,
2013-10-08 22:00:00,54.0,43.0,-100.00,SW,232,5.0,-999.0,64,0.00,,,-99.99,,2013-10-09 05:00:00,
2013-10-08 22:42:00,54.0,43.0,-100.00,SW,232,5.0,-999.0,64,0.00,,,-99.99,,2013-10-09 05:42:00,
2013-10-08 22:52:00,54.0,43.0,-100.00,SW,232,5.0,-999.0,64,0.00,,,-99.99,,2013-10-09 05:52:00,
2013-10-08 23:00:00,54.0,43.0,-100.00,WSW,251,4.0,-999.0,65,0.00,,,-99.99,,2013-10-09 06:00:00,
2013-10-08 23:42:00,54.0,43.0,-100.00,WSW,251,4.0,-999.0,65,0.00,,,-99.99,,2013-10-09 06:42:00,
2013-10-08 23:52:00,54.0,43.0,-100.00,WSW,251,4.0,-999.0,65,0.00,,,-99.99,,2013-10-09 06:52:00,